<?xml version="1.0" encoding="UTF-8" standalone="no" ?>
<gpx xmlns="http://www.topografix.com/GPX/1/1" xmlns:xsi="http://www.w3.org/2001/XMLSchema-instance" xsi:schemaLocation="http://www.topografix.com/GPX/1/1 http://www.topografix.com/GPX/1/1/gpx.xsd" version="1.1" creator="VisuGPX - https://www.visugpx.com">
  <metadata>
    <name>13710277-Sud-Ouest Prémanon</name>
  </metadata>
  <trk>
    <name><![CDATA[13710277-Sud-Ouest Prémanon]]></name>
    <trkseg>
      <trkpt lat="46.46295" lon="6.02033">
        <ele>1127</ele>
        <time>2021-09-18T09:12:04Z</time>
      </trkpt>
      <trkpt lat="46.46314" lon="6.01942">
        <ele>1121</ele>
        <time>2021-09-18T09:13:31Z</time>
      </trkpt>
      <trkpt lat="46.46316" lon="6.01861">
        <ele>1117</ele>
        <time>2021-09-18T09:14:46Z</time>
      </trkpt>
      <trkpt lat="46.46249" lon="6.0185">
        <ele>1117</ele>
        <time>2021-09-18T09:16:16Z</time>
      </trkpt>
      <trkpt lat="46.46224" lon="6.01801">
        <ele>1114</ele>
        <time>2021-09-18T09:17:12Z</time>
      </trkpt>
      <trkpt lat="46.46202" lon="6.01771">
        <ele>1114</ele>
        <time>2021-09-18T09:17:52Z</time>
      </trkpt>
      <trkpt lat="46.46211" lon="6.01711">
        <ele>1106</ele>
        <time>2021-09-18T09:18:49Z</time>
      </trkpt>
      <trkpt lat="46.462" lon="6.01661">
        <ele>1102</ele>
        <time>2021-09-18T09:19:37Z</time>
      </trkpt>
      <trkpt lat="46.46178" lon="6.01627">
        <ele>1102</ele>
        <time>2021-09-18T09:20:20Z</time>
      </trkpt>
      <trkpt lat="46.46162" lon="6.01595">
        <ele>1100</ele>
        <time>2021-09-18T09:20:56Z</time>
      </trkpt>
      <trkpt lat="46.46138" lon="6.01509">
        <ele>1096</ele>
        <time>2021-09-18T09:22:21Z</time>
      </trkpt>
      <trkpt lat="46.4607" lon="6.01387">
        <ele>1093</ele>
        <time>2021-09-18T09:24:46Z</time>
      </trkpt>
      <trkpt lat="46.45979" lon="6.01219">
        <ele>1093</ele>
        <time>2021-09-18T09:28:02Z</time>
      </trkpt>
      <trkpt lat="46.45981" lon="6.01174">
        <ele>1092</ele>
        <time>2021-09-18T09:28:44Z</time>
      </trkpt>
      <trkpt lat="46.46001" lon="6.01118">
        <ele>1090</ele>
        <time>2021-09-18T09:29:42Z</time>
      </trkpt>
      <trkpt lat="46.46044" lon="6.01018">
        <ele>1094</ele>
        <time>2021-09-18T09:31:30Z</time>
      </trkpt>
      <trkpt lat="46.46063" lon="6.00985">
        <ele>1094</ele>
        <time>2021-09-18T09:32:09Z</time>
      </trkpt>
      <trkpt lat="46.46041" lon="6.00947">
        <ele>1099</ele>
        <time>2021-09-18T09:32:55Z</time>
      </trkpt>
      <trkpt lat="46.46001" lon="6.00932">
        <ele>1107</ele>
        <time>2021-09-18T09:33:50Z</time>
      </trkpt>
      <trkpt lat="46.46002" lon="6.0088">
        <ele>1109</ele>
        <time>2021-09-18T09:34:38Z</time>
      </trkpt>
      <trkpt lat="46.45952" lon="6.00816">
        <ele>1120</ele>
        <time>2021-09-18T09:36:07Z</time>
      </trkpt>
      <trkpt lat="46.45915" lon="6.00713">
        <ele>1121</ele>
        <time>2021-09-18T09:37:54Z</time>
      </trkpt>
      <trkpt lat="46.45843" lon="6.00603">
        <ele>1128</ele>
        <time>2021-09-18T09:40:13Z</time>
      </trkpt>
      <trkpt lat="46.45797" lon="6.00498">
        <ele>1134</ele>
        <time>2021-09-18T09:42:08Z</time>
      </trkpt>
      <trkpt lat="46.45739" lon="6.00402">
        <ele>1141</ele>
        <time>2021-09-18T09:44:05Z</time>
      </trkpt>
      <trkpt lat="46.45699" lon="6.00277">
        <ele>1154</ele>
        <time>2021-09-18T09:46:12Z</time>
      </trkpt>
      <trkpt lat="46.45652" lon="6.00202">
        <ele>1164</ele>
        <time>2021-09-18T09:47:45Z</time>
      </trkpt>
      <trkpt lat="46.45594" lon="6.00099">
        <ele>1188</ele>
        <time>2021-09-18T09:49:47Z</time>
      </trkpt>
      <trkpt lat="46.45528" lon="6.00069">
        <ele>1208</ele>
        <time>2021-09-18T09:51:20Z</time>
      </trkpt>
      <trkpt lat="46.455" lon="6.00106">
        <ele>1214</ele>
        <time>2021-09-18T09:52:10Z</time>
      </trkpt>
      <trkpt lat="46.4548" lon="6.00176">
        <ele>1220</ele>
        <time>2021-09-18T09:53:20Z</time>
      </trkpt>
      <trkpt lat="46.45466" lon="6.00217">
        <ele>1223</ele>
        <time>2021-09-18T09:54:02Z</time>
      </trkpt>
      <trkpt lat="46.4542" lon="6.00155">
        <ele>1241</ele>
        <time>2021-09-18T09:55:26Z</time>
      </trkpt>
      <trkpt lat="46.45399" lon="6.00071">
        <ele>1249</ele>
        <time>2021-09-18T09:56:48Z</time>
      </trkpt>
      <trkpt lat="46.45344" lon="6.00041">
        <ele>1260</ele>
        <time>2021-09-18T09:58:06Z</time>
      </trkpt>
      <trkpt lat="46.45344" lon="6.00006">
        <ele>1259</ele>
        <time>2021-09-18T09:58:38Z</time>
      </trkpt>
      <trkpt lat="46.4549" lon="5.99871">
        <ele>1262</ele>
        <time>2021-09-18T10:02:29Z</time>
      </trkpt>
      <trkpt lat="46.45541" lon="5.99863">
        <ele>1256</ele>
        <time>2021-09-18T10:03:38Z</time>
      </trkpt>
      <trkpt lat="46.45608" lon="5.99827">
        <ele>1260</ele>
        <time>2021-09-18T10:05:13Z</time>
      </trkpt>
      <trkpt lat="46.45588" lon="5.99803">
        <ele>1261</ele>
        <time>2021-09-18T10:05:48Z</time>
      </trkpt>
      <trkpt lat="46.45579" lon="5.99754">
        <ele>1262</ele>
        <time>2021-09-18T10:06:34Z</time>
      </trkpt>
      <trkpt lat="46.45565" lon="5.99696">
        <ele>1262</ele>
        <time>2021-09-18T10:07:31Z</time>
      </trkpt>
      <trkpt lat="46.4551" lon="5.99644">
        <ele>1260</ele>
        <time>2021-09-18T10:08:59Z</time>
      </trkpt>
      <trkpt lat="46.45442" lon="5.9958">
        <ele>1257</ele>
        <time>2021-09-18T10:10:47Z</time>
      </trkpt>
      <trkpt lat="46.45344" lon="5.99558">
        <ele>1261</ele>
        <time>2021-09-18T10:12:59Z</time>
      </trkpt>
      <trkpt lat="46.45287" lon="5.99503">
        <ele>1252</ele>
        <time>2021-09-18T10:14:30Z</time>
      </trkpt>
      <trkpt lat="46.45245" lon="5.9946">
        <ele>1245</ele>
        <time>2021-09-18T10:15:39Z</time>
      </trkpt>
      <trkpt lat="46.45198" lon="5.9941">
        <ele>1238</ele>
        <time>2021-09-18T10:16:57Z</time>
      </trkpt>
      <trkpt lat="46.45158" lon="5.99344">
        <ele>1229</ele>
        <time>2021-09-18T10:18:17Z</time>
      </trkpt>
      <trkpt lat="46.45126" lon="5.99256">
        <ele>1219</ele>
        <time>2021-09-18T10:19:49Z</time>
      </trkpt>
      <trkpt lat="46.45102" lon="5.99159">
        <ele>1213</ele>
        <time>2021-09-18T10:21:24Z</time>
      </trkpt>
      <trkpt lat="46.45032" lon="5.99101">
        <ele>1211</ele>
        <time>2021-09-18T10:23:11Z</time>
      </trkpt>
      <trkpt lat="46.45022" lon="5.99061">
        <ele>1210</ele>
        <time>2021-09-18T10:23:50Z</time>
      </trkpt>
      <trkpt lat="46.44963" lon="5.99241">
        <ele>1225</ele>
        <time>2021-09-18T10:26:54Z</time>
      </trkpt>
      <trkpt lat="46.44931" lon="5.99366">
        <ele>1242</ele>
        <time>2021-09-18T10:28:56Z</time>
      </trkpt>
      <trkpt lat="46.44909" lon="5.99468">
        <ele>1253</ele>
        <time>2021-09-18T10:30:35Z</time>
      </trkpt>
      <trkpt lat="46.44949" lon="5.99551">
        <ele>1256</ele>
        <time>2021-09-18T10:32:08Z</time>
      </trkpt>
      <trkpt lat="46.45009" lon="5.99614">
        <ele>1259</ele>
        <time>2021-09-18T10:33:47Z</time>
      </trkpt>
      <trkpt lat="46.45013" lon="5.99722">
        <ele>1269</ele>
        <time>2021-09-18T10:35:26Z</time>
      </trkpt>
      <trkpt lat="46.44982" lon="5.99819">
        <ele>1279</ele>
        <time>2021-09-18T10:37:04Z</time>
      </trkpt>
      <trkpt lat="46.4494" lon="5.99875">
        <ele>1284</ele>
        <time>2021-09-18T10:38:20Z</time>
      </trkpt>
      <trkpt lat="46.44916" lon="6.00003">
        <ele>1282</ele>
        <time>2021-09-18T10:40:22Z</time>
      </trkpt>
      <trkpt lat="46.44893" lon="6.00058">
        <ele>1283</ele>
        <time>2021-09-18T10:41:22Z</time>
      </trkpt>
      <trkpt lat="46.44877" lon="6.00114">
        <ele>1285</ele>
        <time>2021-09-18T10:42:17Z</time>
      </trkpt>
      <trkpt lat="46.44847" lon="6.00244">
        <ele>1285</ele>
        <time>2021-09-18T10:44:23Z</time>
      </trkpt>
      <trkpt lat="46.44841" lon="6.00325">
        <ele>1286</ele>
        <time>2021-09-18T10:45:38Z</time>
      </trkpt>
      <trkpt lat="46.44837" lon="6.00406">
        <ele>1286</ele>
        <time>2021-09-18T10:46:53Z</time>
      </trkpt>
      <trkpt lat="46.44839" lon="6.00494">
        <ele>1284</ele>
        <time>2021-09-18T10:48:14Z</time>
      </trkpt>
      <trkpt lat="46.44839" lon="6.00576">
        <ele>1281</ele>
        <time>2021-09-18T10:49:29Z</time>
      </trkpt>
      <trkpt lat="46.44836" lon="6.00646">
        <ele>1283</ele>
        <time>2021-09-18T10:50:34Z</time>
      </trkpt>
      <trkpt lat="46.44806" lon="6.007">
        <ele>1283</ele>
        <time>2021-09-18T10:51:37Z</time>
      </trkpt>
      <trkpt lat="46.44797" lon="6.00756">
        <ele>1283</ele>
        <time>2021-09-18T10:52:30Z</time>
      </trkpt>
      <trkpt lat="46.44778" lon="6.00818">
        <ele>1281</ele>
        <time>2021-09-18T10:53:33Z</time>
      </trkpt>
      <trkpt lat="46.44771" lon="6.00931">
        <ele>1282</ele>
        <time>2021-09-18T10:55:17Z</time>
      </trkpt>
      <trkpt lat="46.4477" lon="6.00971">
        <ele>1283</ele>
        <time>2021-09-18T10:55:54Z</time>
      </trkpt>
      <trkpt lat="46.44731" lon="6.01105">
        <ele>1278</ele>
        <time>2021-09-18T10:58:08Z</time>
      </trkpt>
      <trkpt lat="46.44723" lon="6.01191">
        <ele>1276</ele>
        <time>2021-09-18T10:59:27Z</time>
      </trkpt>
      <trkpt lat="46.447" lon="6.01261">
        <ele>1276</ele>
        <time>2021-09-18T11:00:39Z</time>
      </trkpt>
      <trkpt lat="46.4474" lon="6.01292">
        <ele>1272</ele>
        <time>2021-09-18T11:01:39Z</time>
      </trkpt>
      <trkpt lat="46.44777" lon="6.01342">
        <ele>1270</ele>
        <time>2021-09-18T11:02:47Z</time>
      </trkpt>
      <trkpt lat="46.44818" lon="6.01411">
        <ele>1263</ele>
        <time>2021-09-18T11:04:10Z</time>
      </trkpt>
      <trkpt lat="46.44877" lon="6.01505">
        <ele>1262</ele>
        <time>2021-09-18T11:06:07Z</time>
      </trkpt>
      <trkpt lat="46.44917" lon="6.01574">
        <ele>1254</ele>
        <time>2021-09-18T11:07:30Z</time>
      </trkpt>
      <trkpt lat="46.44994" lon="6.01623">
        <ele>1243</ele>
        <time>2021-09-18T11:09:23Z</time>
      </trkpt>
      <trkpt lat="46.45081" lon="6.01672">
        <ele>1234</ele>
        <time>2021-09-18T11:11:27Z</time>
      </trkpt>
      <trkpt lat="46.45127" lon="6.01686">
        <ele>1236</ele>
        <time>2021-09-18T11:12:30Z</time>
      </trkpt>
      <trkpt lat="46.45162" lon="6.01787">
        <ele>1225</ele>
        <time>2021-09-18T11:14:14Z</time>
      </trkpt>
      <trkpt lat="46.45222" lon="6.01904">
        <ele>1210</ele>
        <time>2021-09-18T11:16:28Z</time>
      </trkpt>
      <trkpt lat="46.45277" lon="6.02018">
        <ele>1193</ele>
        <time>2021-09-18T11:18:36Z</time>
      </trkpt>
      <trkpt lat="46.45293" lon="6.02096">
        <ele>1181</ele>
        <time>2021-09-18T11:19:51Z</time>
      </trkpt>
      <trkpt lat="46.45322" lon="6.02155">
        <ele>1171</ele>
        <time>2021-09-18T11:20:57Z</time>
      </trkpt>
      <trkpt lat="46.45367" lon="6.0219">
        <ele>1163</ele>
        <time>2021-09-18T11:22:05Z</time>
      </trkpt>
      <trkpt lat="46.45386" lon="6.02224">
        <ele>1157</ele>
        <time>2021-09-18T11:22:46Z</time>
      </trkpt>
      <trkpt lat="46.45396" lon="6.02282">
        <ele>1152</ele>
        <time>2021-09-18T11:23:41Z</time>
      </trkpt>
      <trkpt lat="46.4547" lon="6.02316">
        <ele>1143</ele>
        <time>2021-09-18T11:25:24Z</time>
      </trkpt>
      <trkpt lat="46.45543" lon="6.02417">
        <ele>1139</ele>
        <time>2021-09-18T11:27:39Z</time>
      </trkpt>
      <trkpt lat="46.45629" lon="6.02506">
        <ele>1134</ele>
        <time>2021-09-18T11:30:00Z</time>
      </trkpt>
      <trkpt lat="46.45682" lon="6.02531">
        <ele>1132</ele>
        <time>2021-09-18T11:31:14Z</time>
      </trkpt>
      <trkpt lat="46.4571" lon="6.02553">
        <ele>1130</ele>
        <time>2021-09-18T11:31:57Z</time>
      </trkpt>
      <trkpt lat="46.45788" lon="6.02587">
        <ele>1126</ele>
        <time>2021-09-18T11:33:45Z</time>
      </trkpt>
      <trkpt lat="46.45819" lon="6.02626">
        <ele>1125</ele>
        <time>2021-09-18T11:34:40Z</time>
      </trkpt>
      <trkpt lat="46.45854" lon="6.02679">
        <ele>1123</ele>
        <time>2021-09-18T11:35:47Z</time>
      </trkpt>
      <trkpt lat="46.45869" lon="6.02696">
        <ele>1125</ele>
        <time>2021-09-18T11:36:13Z</time>
      </trkpt>
      <trkpt lat="46.45914" lon="6.02757">
        <ele>1125</ele>
        <time>2021-09-18T11:37:35Z</time>
      </trkpt>
      <trkpt lat="46.45935" lon="6.02801">
        <ele>1125</ele>
        <time>2021-09-18T11:38:24Z</time>
      </trkpt>
      <trkpt lat="46.45957" lon="6.02844">
        <ele>1124</ele>
        <time>2021-09-18T11:39:13Z</time>
      </trkpt>
      <trkpt lat="46.46041" lon="6.02902">
        <ele>1122</ele>
        <time>2021-09-18T11:41:18Z</time>
      </trkpt>
      <trkpt lat="46.46138" lon="6.02978">
        <ele>1119</ele>
        <time>2021-09-18T11:43:45Z</time>
      </trkpt>
      <trkpt lat="46.46152" lon="6.02956">
        <ele>1118</ele>
        <time>2021-09-18T11:44:12Z</time>
      </trkpt>
      <trkpt lat="46.46179" lon="6.0292">
        <ele>1118</ele>
        <time>2021-09-18T11:45:01Z</time>
      </trkpt>
      <trkpt lat="46.46202" lon="6.02901">
        <ele>1120</ele>
        <time>2021-09-18T11:45:36Z</time>
      </trkpt>
      <trkpt lat="46.46199" lon="6.02843">
        <ele>1123</ele>
        <time>2021-09-18T11:46:30Z</time>
      </trkpt>
      <trkpt lat="46.46205" lon="6.02816">
        <ele>1126</ele>
        <time>2021-09-18T11:46:56Z</time>
      </trkpt>
      <trkpt lat="46.46198" lon="6.02812">
        <ele>1127</ele>
        <time>2021-09-18T11:47:06Z</time>
      </trkpt>
      <trkpt lat="46.46201" lon="6.02796">
        <ele>1129</ele>
        <time>2021-09-18T11:47:21Z</time>
      </trkpt>
      <trkpt lat="46.46206" lon="6.02792">
        <ele>1129</ele>
        <time>2021-09-18T11:47:29Z</time>
      </trkpt>
      <trkpt lat="46.46207" lon="6.02777">
        <ele>1131</ele>
        <time>2021-09-18T11:47:43Z</time>
      </trkpt>
      <trkpt lat="46.46165" lon="6.02728">
        <ele>1141</ele>
        <time>2021-09-18T11:48:55Z</time>
      </trkpt>
      <trkpt lat="46.46188" lon="6.02626">
        <ele>1142</ele>
        <time>2021-09-18T11:50:33Z</time>
      </trkpt>
      <trkpt lat="46.462" lon="6.02614">
        <ele>1140</ele>
        <time>2021-09-18T11:50:53Z</time>
      </trkpt>
      <trkpt lat="46.462" lon="6.02558">
        <ele>1138</ele>
        <time>2021-09-18T11:51:44Z</time>
      </trkpt>
      <trkpt lat="46.46205" lon="6.0251">
        <ele>1135</ele>
        <time>2021-09-18T11:52:29Z</time>
      </trkpt>
      <trkpt lat="46.46228" lon="6.02479">
        <ele>1128</ele>
        <time>2021-09-18T11:53:11Z</time>
      </trkpt>
      <trkpt lat="46.4623" lon="6.02443">
        <ele>1126</ele>
        <time>2021-09-18T11:53:44Z</time>
      </trkpt>
      <trkpt lat="46.46243" lon="6.02396">
        <ele>1122</ele>
        <time>2021-09-18T11:54:30Z</time>
      </trkpt>
      <trkpt lat="46.46249" lon="6.02365">
        <ele>1120</ele>
        <time>2021-09-18T11:55:00Z</time>
      </trkpt>
      <trkpt lat="46.46244" lon="6.02324">
        <ele>1123</ele>
        <time>2021-09-18T11:55:38Z</time>
      </trkpt>
      <trkpt lat="46.46247" lon="6.02286">
        <ele>1126</ele>
        <time>2021-09-18T11:56:13Z</time>
      </trkpt>
      <trkpt lat="46.46259" lon="6.02238">
        <ele>1128</ele>
        <time>2021-09-18T11:57:00Z</time>
      </trkpt>
      <trkpt lat="46.46276" lon="6.02193">
        <ele>1126</ele>
        <time>2021-09-18T11:57:48Z</time>
      </trkpt>
      <trkpt lat="46.46286" lon="6.02154">
        <ele>1126</ele>
        <time>2021-09-18T11:58:26Z</time>
      </trkpt>
      <trkpt lat="46.46289" lon="6.02108">
        <ele>1127</ele>
        <time>2021-09-18T11:59:08Z</time>
      </trkpt>
      <trkpt lat="46.46291" lon="6.02051">
        <ele>1128</ele>
        <time>2021-09-18T12:00:01Z</time>
      </trkpt>
    </trkseg>
  </trk>
</gpx>